sensor_id;sensor_type;location;lat;lon;timestamp;P1;durP1;ratioP1;P2;durP2;ratioP2
67715;SDS011;54508;43.238;25.306;2023-12-07T00:00:38;9.43;;;6.60;;
67715;SDS011;54508;43.238;25.306;2023-12-07T00:03:03;9.57;;;6.57;;
67715;SDS011;54508;43.238;25.306;2023-12-07T00:05:32;9.18;;;6.88;;
67715;SDS011;54508;43.238;25.306;2023-12-07T00:07:57;9.50;;;6.83;;
67715;SDS011;54508;43.238;25.306;2023-12-07T00:10:23;10.00;;;6.95;;
67715;SDS011;54508;43.238;25.306;2023-12-07T00:12:48;9.75;;;7.45;;
67715;SDS011;54508;43.238;25.306;2023-12-07T00:15:14;8.03;;;6.63;;
67715;SDS011;54508;43.238;25.306;2023-12-07T00:17:39;9.00;;;6.53;;
67715;SDS011;54508;43.238;25.306;2023-12-07T00:20:05;9.27;;;6.77;;
67715;SDS011;54508;43.238;25.306;2023-12-07T00:22:30;15.10;;;8.70;;
67715;SDS011;54508;43.238;25.306;2023-12-07T00:24:56;8.27;;;6.63;;
67715;SDS011;54508;43.238;25.306;2023-12-07T00:27:21;10.17;;;6.70;;
67715;SDS011;54508;43.238;25.306;2023-12-07T00:29:46;10.20;;;6.50;;
67715;SDS011;54508;43.238;25.306;2023-12-07T00:32:12;9.43;;;6.70;;
67715;SDS011;54508;43.238;25.306;2023-12-07T00:34:37;11.18;;;7.65;;
67715;SDS011;54508;43.238;25.306;2023-12-07T00:37:03;9.50;;;6.80;;
67715;SDS011;54508;43.238;25.306;2023-12-07T00:39:28;7.87;;;6.90;;
67715;SDS011;54508;43.238;25.306;2023-12-07T00:41:54;9.57;;;6.80;;
67715;SDS011;54508;43.238;25.306;2023-12-07T00:44:19;10.20;;;7.07;;
67715;SDS011;54508;43.238;25.306;2023-12-07T00:46:44;8.90;;;6.43;;
67715;SDS011;54508;43.238;25.306;2023-12-07T00:49:10;8.67;;;6.50;;
67715;SDS011;54508;43.238;25.306;2023-12-07T00:51:36;9.20;;;6.47;;
67715;SDS011;54508;43.238;25.306;2023-12-07T00:54:02;9.80;;;7.20;;
67715;SDS011;54508;43.238;25.306;2023-12-07T00:56:27;8.00;;;6.13;;
67715;SDS011;54508;43.238;25.306;2023-12-07T00:58:52;8.50;;;5.87;;
67715;SDS011;54508;43.238;25.306;2023-12-07T01:01:18;7.57;;;6.20;;
67715;SDS011;54508;43.238;25.306;2023-12-07T01:03:43;8.77;;;6.75;;
67715;SDS011;54508;43.238;25.306;2023-12-07T01:06:09;8.83;;;6.20;;
67715;SDS011;54508;43.238;25.306;2023-12-07T01:08:36;8.23;;;6.20;;
67715;SDS011;54508;43.238;25.306;2023-12-07T01:11:02;9.87;;;6.50;;
67715;SDS011;54508;43.238;25.306;2023-12-07T01:13:28;7.78;;;6.00;;
67715;SDS011;54508;43.238;25.306;2023-12-07T01:15:53;8.37;;;6.80;;
67715;SDS011;54508;43.238;25.306;2023-12-07T01:18:19;8.73;;;6.35;;
67715;SDS011;54508;43.238;25.306;2023-12-07T01:20:44;7.83;;;5.93;;
67715;SDS011;54508;43.238;25.306;2023-12-07T01:23:10;10.47;;;6.60;;
67715;SDS011;54508;43.238;25.306;2023-12-07T01:25:35;9.07;;;6.23;;
67715;SDS011;54508;43.238;25.306;2023-12-07T01:28:01;8.85;;;6.85;;
67715;SDS011;54508;43.238;25.306;2023-12-07T01:30:26;9.57;;;6.60;;
67715;SDS011;54508;43.238;25.306;2023-12-07T01:32:52;7.37;;;6.17;;
67715;SDS011;54508;43.238;25.306;2023-12-07T01:35:17;8.27;;;6.85;;
67715;SDS011;54508;43.238;25.306;2023-12-07T01:37:42;8.27;;;6.28;;
67715;SDS011;54508;43.238;25.306;2023-12-07T01:40:08;7.57;;;6.03;;
67715;SDS011;54508;43.238;25.306;2023-12-07T01:42:37;9.00;;;6.60;;
67715;SDS011;54508;43.238;25.306;2023-12-07T01:45:03;8.32;;;6.05;;
67715;SDS011;54508;43.238;25.306;2023-12-07T01:47:32;8.93;;;6.47;;
67715;SDS011;54508;43.238;25.306;2023-12-07T01:49:59;12.20;;;6.55;;
67715;SDS011;54508;43.238;25.306;2023-12-07T01:52:25;7.05;;;5.85;;
67715;SDS011;54508;43.238;25.306;2023-12-07T01:54:52;6.72;;;5.70;;
67715;SDS011;54508;43.238;25.306;2023-12-07T01:57:18;8.43;;;5.67;;
67715;SDS011;54508;43.238;25.306;2023-12-07T01:59:43;9.10;;;6.25;;
67715;SDS011;54508;43.238;25.306;2023-12-07T02:02:09;8.67;;;6.20;;
67715;SDS011;54508;43.238;25.306;2023-12-07T02:04:34;6.73;;;5.70;;
67715;SDS011;54508;43.238;25.306;2023-12-07T02:07:00;8.07;;;6.37;;
67715;SDS011;54508;43.238;25.306;2023-12-07T02:09:26;8.05;;;5.82;;
67715;SDS011;54508;43.238;25.306;2023-12-07T02:11:52;8.40;;;5.82;;
67715;SDS011;54508;43.238;25.306;2023-12-07T02:14:17;8.43;;;6.17;;
67715;SDS011;54508;43.238;25.306;2023-12-07T02:16:45;8.10;;;5.70;;
67715;SDS011;54508;43.238;25.306;2023-12-07T02:22:12;6.75;;;5.30;;
67715;SDS011;54508;43.238;25.306;2023-12-07T02:24:44;8.23;;;5.70;;
67715;SDS011;54508;43.238;25.306;2023-12-07T02:27:13;7.70;;;5.90;;
67715;SDS011;54508;43.238;25.306;2023-12-07T02:29:38;7.70;;;5.50;;
67715;SDS011;54508;43.238;25.306;2023-12-07T02:32:04;8.37;;;6.00;;
67715;SDS011;54508;43.238;25.306;2023-12-07T02:34:29;6.95;;;5.60;;
67715;SDS011;54508;43.238;25.306;2023-12-07T02:36:55;8.52;;;5.85;;
67715;SDS011;54508;43.238;25.306;2023-12-07T02:39:22;7.10;;;5.90;;
67715;SDS011;54508;43.238;25.306;2023-12-07T02:41:48;7.65;;;6.25;;
67715;SDS011;54508;43.238;25.306;2023-12-07T02:44:14;7.13;;;5.32;;
67715;SDS011;54508;43.238;25.306;2023-12-07T02:46:40;7.80;;;5.57;;
67715;SDS011;54508;43.238;25.306;2023-12-07T02:49:05;7.80;;;5.87;;
67715;SDS011;54508;43.238;25.306;2023-12-07T02:51:31;6.75;;;5.10;;
67715;SDS011;54508;43.238;25.306;2023-12-07T02:53:56;6.97;;;5.60;;
67715;SDS011;54508;43.238;25.306;2023-12-07T02:56:21;7.90;;;5.23;;
67715;SDS011;54508;43.238;25.306;2023-12-07T02:58:50;7.23;;;5.73;;
67715;SDS011;54508;43.238;25.306;2023-12-07T03:01:15;8.05;;;5.80;;
67715;SDS011;54508;43.238;25.306;2023-12-07T03:03:41;7.50;;;5.70;;
67715;SDS011;54508;43.238;25.306;2023-12-07T03:06:07;7.05;;;5.53;;
67715;SDS011;54508;43.238;25.306;2023-12-07T03:08:32;6.37;;;5.33;;
67715;SDS011;54508;43.238;25.306;2023-12-07T03:10:58;6.90;;;5.57;;
67715;SDS011;54508;43.238;25.306;2023-12-07T03:13:23;8.40;;;5.47;;
67715;SDS011;54508;43.238;25.306;2023-12-07T03:15:48;8.47;;;6.17;;
67715;SDS011;54508;43.238;25.306;2023-12-07T03:18:14;7.70;;;5.47;;
67715;SDS011;54508;43.238;25.306;2023-12-07T03:20:40;7.97;;;5.10;;
67715;SDS011;54508;43.238;25.306;2023-12-07T03:23:05;7.97;;;5.57;;
67715;SDS011;54508;43.238;25.306;2023-12-07T03:25:31;8.23;;;5.75;;
67715;SDS011;54508;43.238;25.306;2023-12-07T03:27:56;7.37;;;6.03;;
67715;SDS011;54508;43.238;25.306;2023-12-07T03:30:21;7.47;;;5.40;;
67715;SDS011;54508;43.238;25.306;2023-12-07T03:32:47;9.90;;;5.10;;
67715;SDS011;54508;43.238;25.306;2023-12-07T03:35:12;6.93;;;5.43;;
67715;SDS011;54508;43.238;25.306;2023-12-07T03:37:38;7.10;;;5.63;;
67715;SDS011;54508;43.238;25.306;2023-12-07T03:40:03;6.78;;;5.68;;
67715;SDS011;54508;43.238;25.306;2023-12-07T03:42:30;7.10;;;5.60;;
67715;SDS011;54508;43.238;25.306;2023-12-07T03:44:56;7.80;;;5.93;;
67715;SDS011;54508;43.238;25.306;2023-12-07T03:47:21;7.27;;;5.63;;
67715;SDS011;54508;43.238;25.306;2023-12-07T03:49:47;7.97;;;5.40;;
67715;SDS011;54508;43.238;25.306;2023-12-07T03:52:12;9.17;;;5.87;;
67715;SDS011;54508;43.238;25.306;2023-12-07T03:54:37;8.43;;;5.67;;
67715;SDS011;54508;43.238;25.306;2023-12-07T03:57:03;9.05;;;5.85;;
67715;SDS011;54508;43.238;25.306;2023-12-07T03:59:29;7.57;;;5.73;;
67715;SDS011;54508;43.238;25.306;2023-12-07T04:01:55;7.38;;;5.75;;
67715;SDS011;54508;43.238;25.306;2023-12-07T04:04:20;8.10;;;5.37;;
67715;SDS011;54508;43.238;25.306;2023-12-07T04:06:46;6.87;;;5.67;;
67715;SDS011;54508;43.238;25.306;2023-12-07T04:09:11;8.20;;;6.10;;
67715;SDS011;54508;43.238;25.306;2023-12-07T04:11:36;7.20;;;5.50;;
67715;SDS011;54508;43.238;25.306;2023-12-07T04:14:02;7.40;;;6.03;;
67715;SDS011;54508;43.238;25.306;2023-12-07T04:16:27;7.72;;;5.80;;
67715;SDS011;54508;43.238;25.306;2023-12-07T04:18:53;8.03;;;6.17;;
67715;SDS011;54508;43.238;25.306;2023-12-07T04:21:18;8.53;;;5.63;;
67715;SDS011;54508;43.238;25.306;2023-12-07T04:23:44;7.43;;;5.97;;
67715;SDS011;54508;43.238;25.306;2023-12-07T04:26:09;7.60;;;6.05;;
67715;SDS011;54508;43.238;25.306;2023-12-07T04:28:34;8.43;;;5.23;;
67715;SDS011;54508;43.238;25.306;2023-12-07T04:31:00;7.50;;;5.50;;
67715;SDS011;54508;43.238;25.306;2023-12-07T04:33:25;7.00;;;5.27;;
67715;SDS011;54508;43.238;25.306;2023-12-07T04:35:50;7.43;;;5.40;;
67715;SDS011;54508;43.238;25.306;2023-12-07T04:38:16;6.40;;;5.40;;
67715;SDS011;54508;43.238;25.306;2023-12-07T04:40:41;6.43;;;5.70;;
67715;SDS011;54508;43.238;25.306;2023-12-07T04:43:07;7.27;;;5.40;;
67715;SDS011;54508;43.238;25.306;2023-12-07T04:45:32;5.93;;;5.10;;
67715;SDS011;54508;43.238;25.306;2023-12-07T04:47:58;5.70;;;4.87;;
67715;SDS011;54508;43.238;25.306;2023-12-07T04:50:25;7.43;;;5.55;;
67715;SDS011;54508;43.238;25.306;2023-12-07T04:52:50;6.20;;;5.13;;
67715;SDS011;54508;43.238;25.306;2023-12-07T04:55:16;9.30;;;4.93;;
67715;SDS011;54508;43.238;25.306;2023-12-07T04:57:41;8.10;;;5.50;;
67715;SDS011;54508;43.238;25.306;2023-12-07T05:00:07;7.67;;;5.30;;
67715;SDS011;54508;43.238;25.306;2023-12-07T05:02:34;8.07;;;5.80;;
67715;SDS011;54508;43.238;25.306;2023-12-07T05:04:59;6.83;;;5.00;;
67715;SDS011;54508;43.238;25.306;2023-12-07T05:07:25;9.17;;;5.43;;
67715;SDS011;54508;43.238;25.306;2023-12-07T05:09:50;6.63;;;5.33;;
67715;SDS011;54508;43.238;25.306;2023-12-07T05:12:16;6.75;;;5.30;;
67715;SDS011;54508;43.238;25.306;2023-12-07T05:14:41;7.10;;;5.20;;
67715;SDS011;54508;43.238;25.306;2023-12-07T05:17:07;6.60;;;5.13;;
67715;SDS011;54508;43.238;25.306;2023-12-07T05:19:32;5.65;;;4.78;;
67715;SDS011;54508;43.238;25.306;2023-12-07T05:21:57;6.30;;;5.20;;
67715;SDS011;54508;43.238;25.306;2023-12-07T05:24:23;6.73;;;5.10;;
67715;SDS011;54508;43.238;25.306;2023-12-07T05:26:48;6.73;;;5.70;;
67715;SDS011;54508;43.238;25.306;2023-12-07T05:29:14;6.10;;;5.00;;
67715;SDS011;54508;43.238;25.306;2023-12-07T05:31:39;7.15;;;5.40;;
67715;SDS011;54508;43.238;25.306;2023-12-07T05:34:05;6.53;;;5.17;;
67715;SDS011;54508;43.238;25.306;2023-12-07T05:36:31;5.15;;;4.65;;
67715;SDS011;54508;43.238;25.306;2023-12-07T05:38:57;7.03;;;4.97;;
67715;SDS011;54508;43.238;25.306;2023-12-07T05:41:22;7.53;;;5.15;;
67715;SDS011;54508;43.238;25.306;2023-12-07T05:43:48;7.17;;;5.30;;
67715;SDS011;54508;43.238;25.306;2023-12-07T05:46:13;5.67;;;5.00;;
67715;SDS011;54508;43.238;25.306;2023-12-07T05:48:39;6.07;;;4.78;;
67715;SDS011;54508;43.238;25.306;2023-12-07T05:51:04;6.83;;;5.10;;
67715;SDS011;54508;43.238;25.306;2023-12-07T05:53:30;5.90;;;4.93;;
67715;SDS011;54508;43.238;25.306;2023-12-07T05:55:57;7.07;;;5.15;;
67715;SDS011;54508;43.238;25.306;2023-12-07T05:58:24;6.32;;;4.80;;
67715;SDS011;54508;43.238;25.306;2023-12-07T06:00:49;5.50;;;4.90;;
67715;SDS011;54508;43.238;25.306;2023-12-07T06:03:14;7.17;;;4.80;;
67715;SDS011;54508;43.238;25.306;2023-12-07T06:05:40;6.85;;;4.80;;
67715;SDS011;54508;43.238;25.306;2023-12-07T06:08:06;6.67;;;5.40;;
67715;SDS011;54508;43.238;25.306;2023-12-07T06:10:32;7.63;;;5.53;;
67715;SDS011;54508;43.238;25.306;2023-12-07T06:12:57;6.80;;;5.17;;
67715;SDS011;54508;43.238;25.306;2023-12-07T06:15:25;7.25;;;5.30;;
67715;SDS011;54508;43.238;25.306;2023-12-07T06:17:51;12.50;;;5.13;;
67715;SDS011;54508;43.238;25.306;2023-12-07T06:20:17;14.55;;;5.68;;
67715;SDS011;54508;43.238;25.306;2023-12-07T06:22:42;7.77;;;5.60;;
67715;SDS011;54508;43.238;25.306;2023-12-07T06:25:07;9.03;;;6.07;;
67715;SDS011;54508;43.238;25.306;2023-12-07T06:27:34;7.78;;;6.10;;
67715;SDS011;54508;43.238;25.306;2023-12-07T06:30:00;11.97;;;6.20;;
67715;SDS011;54508;43.238;25.306;2023-12-07T06:32:25;7.55;;;5.93;;
67715;SDS011;54508;43.238;25.306;2023-12-07T06:34:51;7.97;;;5.83;;
67715;SDS011;54508;43.238;25.306;2023-12-07T06:37:16;6.57;;;5.83;;
67715;SDS011;54508;43.238;25.306;2023-12-07T06:39:42;7.28;;;5.70;;
67715;SDS011;54508;43.238;25.306;2023-12-07T06:42:08;7.43;;;5.63;;
67715;SDS011;54508;43.238;25.306;2023-12-07T06:44:33;10.87;;;6.20;;
67715;SDS011;54508;43.238;25.306;2023-12-07T06:46:59;12.23;;;7.28;;
67715;SDS011;54508;43.238;25.306;2023-12-07T06:49:28;12.77;;;7.53;;
67715;SDS011;54508;43.238;25.306;2023-12-07T06:51:53;10.07;;;7.78;;
67715;SDS011;54508;43.238;25.306;2023-12-07T06:54:18;11.50;;;8.38;;
67715;SDS011;54508;43.238;25.306;2023-12-07T06:56:44;13.60;;;7.57;;
67715;SDS011;54508;43.238;25.306;2023-12-07T06:59:09;12.03;;;7.07;;
67715;SDS011;54508;43.238;25.306;2023-12-07T07:01:35;8.67;;;6.80;;
67715;SDS011;54508;43.238;25.306;2023-12-07T07:04:00;14.37;;;6.60;;
67715;SDS011;54508;43.238;25.306;2023-12-07T07:06:26;11.23;;;5.75;;
67715;SDS011;54508;43.238;25.306;2023-12-07T07:08:51;8.40;;;6.32;;
67715;SDS011;54508;43.238;25.306;2023-12-07T07:11:16;10.83;;;6.60;;
67715;SDS011;54508;43.238;25.306;2023-12-07T07:13:42;10.33;;;6.30;;
67715;SDS011;54508;43.238;25.306;2023-12-07T07:16:07;16.90;;;7.10;;
67715;SDS011;54508;43.238;25.306;2023-12-07T07:18:33;10.63;;;5.97;;
67715;SDS011;54508;43.238;25.306;2023-12-07T07:20:58;8.17;;;4.87;;
67715;SDS011;54508;43.238;25.306;2023-12-07T07:23:24;13.00;;;6.47;;
67715;SDS011;54508;43.238;25.306;2023-12-07T07:25:49;10.77;;;6.10;;
67715;SDS011;54508;43.238;25.306;2023-12-07T07:28:15;11.07;;;6.97;;
67715;SDS011;54508;43.238;25.306;2023-12-07T07:30:40;10.37;;;6.43;;
67715;SDS011;54508;43.238;25.306;2023-12-07T07:33:05;12.00;;;6.07;;
67715;SDS011;54508;43.238;25.306;2023-12-07T07:35:31;12.07;;;7.17;;
67715;SDS011;54508;43.238;25.306;2023-12-07T07:37:56;12.27;;;6.95;;
67715;SDS011;54508;43.238;25.306;2023-12-07T07:40:22;11.33;;;6.00;;
67715;SDS011;54508;43.238;25.306;2023-12-07T07:42:47;8.67;;;6.40;;
67715;SDS011;54508;43.238;25.306;2023-12-07T07:45:13;10.80;;;6.10;;
67715;SDS011;54508;43.238;25.306;2023-12-07T07:47:38;7.53;;;5.90;;
67715;SDS011;54508;43.238;25.306;2023-12-07T07:50:04;5.95;;;5.35;;
67715;SDS011;54508;43.238;25.306;2023-12-07T07:52:33;12.93;;;6.50;;
67715;SDS011;54508;43.238;25.306;2023-12-07T07:55:09;10.82;;;6.75;;
67715;SDS011;54508;43.238;25.306;2023-12-07T07:57:35;9.00;;;7.75;;
67715;SDS011;54508;43.238;25.306;2023-12-07T08:00:00;8.83;;;6.30;;
67715;SDS011;54508;43.238;25.306;2023-12-07T08:02:26;10.37;;;5.87;;
67715;SDS011;54508;43.238;25.306;2023-12-07T08:04:52;9.88;;;5.40;;
67715;SDS011;54508;43.238;25.306;2023-12-07T08:07:17;6.97;;;5.20;;
67715;SDS011;54508;43.238;25.306;2023-12-07T08:09:43;13.68;;;5.85;;
67715;SDS011;54508;43.238;25.306;2023-12-07T08:12:08;9.70;;;5.73;;
67715;SDS011;54508;43.238;25.306;2023-12-07T08:14:37;8.23;;;5.67;;
67715;SDS011;54508;43.238;25.306;2023-12-07T08:17:03;8.70;;;5.50;;
67715;SDS011;54508;43.238;25.306;2023-12-07T08:19:28;6.88;;;5.75;;
67715;SDS011;54508;43.238;25.306;2023-12-07T08:21:54;7.20;;;4.93;;
67715;SDS011;54508;43.238;25.306;2023-12-07T08:24:19;8.17;;;5.57;;
67715;SDS011;54508;43.238;25.306;2023-12-07T08:26:45;7.32;;;4.57;;
67715;SDS011;54508;43.238;25.306;2023-12-07T08:29:10;6.87;;;5.30;;
67715;SDS011;54508;43.238;25.306;2023-12-07T08:31:36;5.30;;;4.57;;
67715;SDS011;54508;43.238;25.306;2023-12-07T08:34:01;7.47;;;4.73;;
67715;SDS011;54508;43.238;25.306;2023-12-07T08:36:26;6.33;;;4.57;;
67715;SDS011;54508;43.238;25.306;2023-12-07T08:38:52;4.85;;;3.50;;
67715;SDS011;54508;43.238;25.306;2023-12-07T08:41:17;5.70;;;3.67;;
67715;SDS011;54508;43.238;25.306;2023-12-07T08:43:43;4.10;;;3.60;;
67715;SDS011;54508;43.238;25.306;2023-12-07T08:46:08;6.68;;;4.40;;
67715;SDS011;54508;43.238;25.306;2023-12-07T08:48:35;6.23;;;4.03;;
67715;SDS011;54508;43.238;25.306;2023-12-07T08:51:02;5.03;;;3.72;;
67715;SDS011;54508;43.238;25.306;2023-12-07T08:53:28;4.72;;;3.50;;
67715;SDS011;54508;43.238;25.306;2023-12-07T08:55:54;7.07;;;5.10;;
67715;SDS011;54508;43.238;25.306;2023-12-07T08:58:19;4.67;;;3.90;;
67715;SDS011;54508;43.238;25.306;2023-12-07T09:00:45;8.90;;;4.78;;
67715;SDS011;54508;43.238;25.306;2023-12-07T09:03:11;9.77;;;4.40;;
67715;SDS011;54508;43.238;25.306;2023-12-07T09:05:37;6.93;;;4.30;;
67715;SDS011;54508;43.238;25.306;2023-12-07T09:08:02;7.30;;;4.37;;
67715;SDS011;54508;43.238;25.306;2023-12-07T09:10:27;5.13;;;3.73;;
67715;SDS011;54508;43.238;25.306;2023-12-07T09:12:53;5.07;;;3.93;;
67715;SDS011;54508;43.238;25.306;2023-12-07T09:15:18;8.07;;;5.45;;
67715;SDS011;54508;43.238;25.306;2023-12-07T09:17:44;8.60;;;4.90;;
67715;SDS011;54508;43.238;25.306;2023-12-07T09:20:09;12.00;;;5.37;;
67715;SDS011;54508;43.238;25.306;2023-12-07T09:22:46;8.57;;;5.10;;
67715;SDS011;54508;43.238;25.306;2023-12-07T09:25:12;8.93;;;5.82;;
67715;SDS011;54508;43.238;25.306;2023-12-07T09:27:38;10.20;;;5.90;;
67715;SDS011;54508;43.238;25.306;2023-12-07T09:30:05;11.90;;;5.35;;
67715;SDS011;54508;43.238;25.306;2023-12-07T09:32:44;7.90;;;5.38;;
67715;SDS011;54508;43.238;25.306;2023-12-07T09:35:10;9.55;;;5.50;;
67715;SDS011;54508;43.238;25.306;2023-12-07T09:37:44;7.47;;;5.13;;
67715;SDS011;54508;43.238;25.306;2023-12-07T09:40:16;14.90;;;11.93;;
67715;SDS011;54508;43.238;25.306;2023-12-07T09:42:43;11.60;;;8.15;;
67715;SDS011;54508;43.238;25.306;2023-12-07T09:45:09;8.07;;;7.07;;
67715;SDS011;54508;43.238;25.306;2023-12-07T09:47:34;8.98;;;5.38;;
67715;SDS011;54508;43.238;25.306;2023-12-07T09:50:02;7.10;;;5.68;;
67715;SDS011;54508;43.238;25.306;2023-12-07T09:52:28;5.95;;;5.10;;
67715;SDS011;54508;43.238;25.306;2023-12-07T09:54:54;5.55;;;4.63;;
67715;SDS011;54508;43.238;25.306;2023-12-07T09:57:20;5.07;;;4.38;;
67715;SDS011;54508;43.238;25.306;2023-12-07T09:59:46;6.97;;;4.43;;
67715;SDS011;54508;43.238;25.306;2023-12-07T10:02:13;6.40;;;4.13;;
67715;SDS011;54508;43.238;25.306;2023-12-07T10:04:38;4.82;;;3.83;;
67715;SDS011;54508;43.238;25.306;2023-12-07T10:07:04;6.50;;;3.83;;
67715;SDS011;54508;43.238;25.306;2023-12-07T10:09:34;5.85;;;3.38;;
67715;SDS011;54508;43.238;25.306;2023-12-07T10:12:03;7.35;;;4.80;;
67715;SDS011;54508;43.238;25.306;2023-12-07T10:14:29;4.40;;;3.50;;
67715;SDS011;54508;43.238;25.306;2023-12-07T10:16:55;7.80;;;3.67;;
67715;SDS011;54508;43.238;25.306;2023-12-07T10:19:21;8.43;;;3.43;;
67715;SDS011;54508;43.238;25.306;2023-12-07T10:21:47;3.42;;;2.97;;
67715;SDS011;54508;43.238;25.306;2023-12-07T10:24:15;5.05;;;2.70;;
67715;SDS011;54508;43.238;25.306;2023-12-07T10:26:44;4.25;;;2.45;;
67715;SDS011;54508;43.238;25.306;2023-12-07T10:29:11;4.72;;;2.83;;
67715;SDS011;54508;43.238;25.306;2023-12-07T10:31:36;4.70;;;2.92;;
67715;SDS011;54508;43.238;25.306;2023-12-07T10:34:02;6.05;;;2.92;;
67715;SDS011;54508;43.238;25.306;2023-12-07T10:36:29;4.68;;;2.95;;
67715;SDS011;54508;43.238;25.306;2023-12-07T10:39:15;5.00;;;3.50;;
67715;SDS011;54508;43.238;25.306;2023-12-07T10:41:42;6.72;;;3.08;;
67715;SDS011;54508;43.238;25.306;2023-12-07T10:44:09;3.13;;;2.30;;
67715;SDS011;54508;43.238;25.306;2023-12-07T10:46:36;5.80;;;2.20;;
67715;SDS011;54508;43.238;25.306;2023-12-07T10:49:04;5.60;;;2.70;;
67715;SDS011;54508;43.238;25.306;2023-12-07T10:54:27;5.32;;;2.40;;
67715;SDS011;54508;43.238;25.306;2023-12-07T10:56:55;3.43;;;2.80;;
67715;SDS011;54508;43.238;25.306;2023-12-07T10:59:21;4.30;;;2.45;;
67715;SDS011;54508;43.238;25.306;2023-12-07T11:01:49;3.58;;;2.40;;
67715;SDS011;54508;43.238;25.306;2023-12-07T11:04:16;6.60;;;2.30;;
67715;SDS011;54508;43.238;25.306;2023-12-07T11:06:42;3.03;;;2.25;;
67715;SDS011;54508;43.238;25.306;2023-12-07T11:09:12;4.15;;;2.40;;
67715;SDS011;54508;43.238;25.306;2023-12-07T11:14:12;4.10;;;1.83;;
67715;SDS011;54508;43.238;25.306;2023-12-07T11:16:43;2.72;;;2.22;;
67715;SDS011;54508;43.238;25.306;2023-12-07T11:21:59;4.88;;;3.58;;
67715;SDS011;54508;43.238;25.306;2023-12-07T11:24:24;4.33;;;2.60;;
67715;SDS011;54508;43.238;25.306;2023-12-07T11:26:54;4.05;;;2.80;;
67715;SDS011;54508;43.238;25.306;2023-12-07T11:29:20;2.67;;;2.40;;
67715;SDS011;54508;43.238;25.306;2023-12-07T11:31:47;3.03;;;2.10;;
67715;SDS011;54508;43.238;25.306;2023-12-07T11:34:13;3.90;;;2.17;;
67715;SDS011;54508;43.238;25.306;2023-12-07T11:36:40;2.92;;;2.15;;
67715;SDS011;54508;43.238;25.306;2023-12-07T11:41:46;5.15;;;2.15;;
67715;SDS011;54508;43.238;25.306;2023-12-07T11:44:15;2.65;;;1.90;;
67715;SDS011;54508;43.238;25.306;2023-12-07T11:46:42;3.72;;;2.30;;
67715;SDS011;54508;43.238;25.306;2023-12-07T11:49:08;2.38;;;1.98;;
67715;SDS011;54508;43.238;25.306;2023-12-07T11:51:36;2.70;;;2.03;;
67715;SDS011;54508;43.238;25.306;2023-12-07T11:54:01;2.93;;;2.00;;
67715;SDS011;54508;43.238;25.306;2023-12-07T11:56:27;2.27;;;1.90;;
67715;SDS011;54508;43.238;25.306;2023-12-07T11:58:52;3.00;;;2.70;;
67715;SDS011;54508;43.238;25.306;2023-12-07T12:01:18;3.70;;;2.07;;
67715;SDS011;54508;43.238;25.306;2023-12-07T12:03:43;2.67;;;2.13;;
67715;SDS011;54508;43.238;25.306;2023-12-07T12:06:09;3.77;;;2.20;;
67715;SDS011;54508;43.238;25.306;2023-12-07T12:08:35;2.97;;;2.15;;
67715;SDS011;54508;43.238;25.306;2023-12-07T12:11:01;3.20;;;2.60;;
67715;SDS011;54508;43.238;25.306;2023-12-07T12:13:27;3.85;;;2.65;;
67715;SDS011;54508;43.238;25.306;2023-12-07T12:15:53;4.20;;;3.13;;
67715;SDS011;54508;43.238;25.306;2023-12-07T12:18:18;3.70;;;2.40;;
67715;SDS011;54508;43.238;25.306;2023-12-07T12:20:45;4.57;;;3.22;;
67715;SDS011;54508;43.238;25.306;2023-12-07T12:23:11;4.30;;;2.90;;
67715;SDS011;54508;43.238;25.306;2023-12-07T12:25:36;5.97;;;3.07;;
67715;SDS011;54508;43.238;25.306;2023-12-07T12:28:02;4.13;;;3.03;;
67715;SDS011;54508;43.238;25.306;2023-12-07T12:30:29;4.37;;;2.50;;
67715;SDS011;54508;43.238;25.306;2023-12-07T12:32:55;3.05;;;2.53;;
67715;SDS011;54508;43.238;25.306;2023-12-07T12:35:20;5.85;;;2.85;;
67715;SDS011;54508;43.238;25.306;2023-12-07T12:37:46;2.77;;;2.40;;
67715;SDS011;54508;43.238;25.306;2023-12-07T12:40:16;4.45;;;2.90;;
67715;SDS011;54508;43.238;25.306;2023-12-07T12:42:44;4.43;;;3.20;;
67715;SDS011;54508;43.238;25.306;2023-12-07T12:45:10;5.82;;;3.40;;
67715;SDS011;54508;43.238;25.306;2023-12-07T12:47:37;4.38;;;2.90;;
67715;SDS011;54508;43.238;25.306;2023-12-07T12:50:03;6.60;;;4.10;;
67715;SDS011;54508;43.238;25.306;2023-12-07T12:52:30;6.13;;;4.40;;
67715;SDS011;54508;43.238;25.306;2023-12-07T12:54:56;4.77;;;3.67;;
67715;SDS011;54508;43.238;25.306;2023-12-07T12:57:21;4.03;;;3.28;;
67715;SDS011;54508;43.238;25.306;2023-12-07T12:59:47;5.35;;;3.90;;
67715;SDS011;54508;43.238;25.306;2023-12-07T13:02:15;4.00;;;3.35;;
67715;SDS011;54508;43.238;25.306;2023-12-07T13:04:41;5.67;;;3.83;;
67715;SDS011;54508;43.238;25.306;2023-12-07T13:07:06;5.60;;;3.93;;
67715;SDS011;54508;43.238;25.306;2023-12-07T13:09:32;5.50;;;3.90;;
67715;SDS011;54508;43.238;25.306;2023-12-07T13:11:57;4.55;;;3.67;;
67715;SDS011;54508;43.238;25.306;2023-12-07T13:14:23;5.70;;;3.57;;
67715;SDS011;54508;43.238;25.306;2023-12-07T13:16:49;3.75;;;3.20;;
67715;SDS011;54508;43.238;25.306;2023-12-07T13:19:15;4.70;;;3.10;;
67715;SDS011;54508;43.238;25.306;2023-12-07T13:21:40;7.15;;;4.47;;
67715;SDS011;54508;43.238;25.306;2023-12-07T13:24:06;3.97;;;3.40;;
67715;SDS011;54508;43.238;25.306;2023-12-07T13:26:32;6.30;;;4.20;;
67715;SDS011;54508;43.238;25.306;2023-12-07T13:28:59;7.35;;;4.70;;
67715;SDS011;54508;43.238;25.306;2023-12-07T13:31:24;5.35;;;4.00;;
67715;SDS011;54508;43.238;25.306;2023-12-07T13:33:50;3.93;;;3.43;;
67715;SDS011;54508;43.238;25.306;2023-12-07T13:36:15;5.28;;;3.60;;
67715;SDS011;54508;43.238;25.306;2023-12-07T13:38:43;4.20;;;3.23;;
67715;SDS011;54508;43.238;25.306;2023-12-07T13:41:08;4.43;;;2.90;;
67715;SDS011;54508;43.238;25.306;2023-12-07T13:43:34;4.57;;;3.10;;
67715;SDS011;54508;43.238;25.306;2023-12-07T13:46:00;5.10;;;3.33;;
67715;SDS011;54508;43.238;25.306;2023-12-07T13:48:25;5.80;;;3.10;;
67715;SDS011;54508;43.238;25.306;2023-12-07T13:50:51;3.78;;;3.10;;
67715;SDS011;54508;43.238;25.306;2023-12-07T13:53:17;3.83;;;3.03;;
67715;SDS011;54508;43.238;25.306;2023-12-07T13:55:44;4.25;;;3.38;;
67715;SDS011;54508;43.238;25.306;2023-12-07T13:58:10;7.47;;;5.70;;
67715;SDS011;54508;43.238;25.306;2023-12-07T14:00:36;9.10;;;5.83;;
67715;SDS011;54508;43.238;25.306;2023-12-07T14:03:02;8.85;;;5.93;;
67715;SDS011;54508;43.238;25.306;2023-12-07T14:05:29;6.00;;;4.55;;
67715;SDS011;54508;43.238;25.306;2023-12-07T14:07:55;7.95;;;4.68;;
67715;SDS011;54508;43.238;25.306;2023-12-07T14:10:20;7.32;;;5.22;;
67715;SDS011;54508;43.238;25.306;2023-12-07T14:12:46;5.70;;;4.03;;
67715;SDS011;54508;43.238;25.306;2023-12-07T14:15:11;7.67;;;3.70;;
67715;SDS011;54508;43.238;25.306;2023-12-07T14:17:37;7.57;;;3.80;;
67715;SDS011;54508;43.238;25.306;2023-12-07T14:20:06;5.43;;;3.40;;
67715;SDS011;54508;43.238;25.306;2023-12-07T14:22:33;8.18;;;4.03;;
67715;SDS011;54508;43.238;25.306;2023-12-07T14:25:00;5.57;;;3.67;;
67715;SDS011;54508;43.238;25.306;2023-12-07T14:27:26;7.32;;;3.63;;
67715;SDS011;54508;43.238;25.306;2023-12-07T14:29:51;5.75;;;3.05;;
67715;SDS011;54508;43.238;25.306;2023-12-07T14:32:17;8.60;;;4.50;;
67715;SDS011;54508;43.238;25.306;2023-12-07T14:34:43;5.88;;;4.25;;
67715;SDS011;54508;43.238;25.306;2023-12-07T14:37:09;7.17;;;4.10;;
67715;SDS011;54508;43.238;25.306;2023-12-07T14:39:35;5.43;;;3.47;;